Weather observations for the past three days for
Petaluma Municipal Airport
Metric (Imperial)
Date Time (pdt) Wind (kph) Vis. (km) Weather Sky Cond. Temperature (ºC) Relative Humidity Wind Chill (°C) Heat Index (°C) Pressure Precipitation (cm)
Air Dwpt 6 hour altimeter (cm) sea level (mb) 1 hr 3 hr 6 hr
Max. Min.
09 12:55 NW 9 G 22 16.09 Fair CLR 23 14 57% 76.15 0.0
09 12:35 Vrbl 7 16.09 Fair CLR 24 13 50% 25 76.15 0.0
09 12:15 Vrbl 9 16.09 Fair CLR 23 12 50% 76.15 0.0
09 11:55 Calm 16.09 Fair CLR 22 12 53% 76.17 0.0
09 11:35 W 11 16.09 Fair CLR 21 11 53% 76.17 0.0
09 11:15 Vrbl 7 16.09 Fair CLR 20 11 56% 76.2 0.0
09 10:55 Calm 16.09 Fair CLR 19 11 60% 76.2 0.0
09 10:35 Calm 16.09 Fair CLR 18 11 64% 76.2 0.0
09 10:15 Calm 16.09 Fair CLR 17 11 68% 76.2 0.0
09 09:55 Calm 16.09 Fair CLR 16 11 72% 76.23 0.0
09 09:35 Calm 16.09 Fair CLR 15 10 72% 76.23 0.0
09 09:15 Calm 16.09 Fair CLR 14 10 77% 76.23 0.0
09 08:55 Calm 16.09 Fair CLR 13 11 88% 76.25 0.0
09 08:35 Calm 14.48 Fair CLR 12 11 94% 76.25 0.0
09 08:15 Calm 14.48 Fair CLR 11 11 100% 76.23 0.0
09 07:55 Calm 14.48 Fair CLR 10 10 100% 76.23 0.0
09 07:30 W 7 12.87 Fair CLR 9 9 100% 8 76.23 0.0
09 07:15 Calm 14.48 Fair CLR 9 9 100% 76.23 0.0
09 06:55 Calm 12.87 Fair CLR 8 8 100% 76.2 0.0
09 06:35 Calm 14.48 Fair CLR 7 7 100% 76.17 0.0
09 06:15 Calm 12.87 Partly Cloudy SCT032 6 6 100% 76.2 0.0
09 05:55 Calm 14.48 Mostly Cloudy FEW016 SCT020 BKN025 6 6 100% 76.17 0.0
09 05:35 Calm 14.48 Overcast OVC018 6 6 100% 76.17 0.0
09 05:15 Calm 16.09 Mostly Cloudy BKN017 BKN022 6 6 100% 76.17 0.0
09 04:55 Calm 16.09 Partly Cloudy FEW016 SCT021 6 6 100% 76.17 0.0
09 04:35 Calm 14.48 Overcast BKN018 OVC025 6 6 100% 76.2 0.0
09 04:15 Calm 16.09 Overcast BKN018 OVC026 7 7 100% 76.17 0.0
09 03:55 Calm 16.09 Overcast OVC017 6 6 100% 76.17 0.0
09 03:35 Calm 14.48 Overcast OVC018 7 7 100% 76.17 0.0
09 03:15 Calm 16.09 Overcast OVC018 7 7 100% 76.2 0.0
09 02:55 Calm 16.09 Overcast OVC019 7 7 100% 76.17 0.0
09 02:35 Calm 16.09 Overcast OVC019 7 7 100% 76.17 0.0
09 02:15 Calm 16.09 Overcast OVC017 7 7 100% 76.2 0.0
09 01:55 Calm 16.09 Overcast OVC018 7 7 100% 76.2 0.0
09 01:35 Calm 16.09 Overcast BKN020 OVC026 8 8 100% 76.23 0.0
09 01:15 Calm 16.09 Overcast BKN020 OVC025 8 8 100% 76.2 0.0
09 00:55 Calm 11.27 Overcast BKN019 OVC024 8 8 100% 76.23 0.0
09 00:35 N 6 14.48 Overcast BKN019 OVC025 8 8 100% 76.23 0.0
09 00:15 N 6 14.48 Overcast OVC019 8 8 100% 76.23 0.0
08 23:55 Calm 14.48 Overcast OVC018 9 9 100% 76.23 0.0
08 23:35 N 6 12.87 Overcast OVC020 9 9 100% 76.25 0.0
08 23:15 Calm 14.48 Overcast OVC022 9 9 100% 76.25 0.0
08 22:55 N 6 16.09 Overcast OVC023 9 9 100% 76.25 0.0
08 22:35 Calm 14.48 Overcast OVC022 9 9 100% 76.25 0.0
08 22:15 Calm 14.48 Overcast BKN019 OVC023 10 10 100% 76.25 0.0
08 21:55 Calm 16.09 Overcast OVC021 10 10 100% 76.25 0.0
08 21:35 Calm 16.09 Overcast OVC021 10 10 100% 76.23 0.0
08 21:15 NW 6 16.09 Overcast OVC019 11 10 94% 76.23 0.0
08 20:55 NW 7 16.09 Overcast BKN018 OVC023 11 10 94% 76.23 0.0
08 20:35 Calm 16.09 Partly Cloudy SCT021 SCT031 SCT042 12 10 88% 76.2 0.0
08 20:15 W 9 16.09 Fair CLR 12 10 88% 76.2 0.0
08 19:55 W 9 16.09 Fair CLR 13 10 82% 76.2 0.0
08 19:35 W 11 16.09 Fair CLR 14 10 77% 76.2 0.0
08 19:15 SW 15 16.09 Fair CLR 15 10 72% 76.2 0.0
08 18:55 SW 15 16.09 Fair CLR 16 10 68% 76.2 0.0
08 18:35 W 13 16.09 Fair CLR 17 10 64% 76.2 0.0
08 18:15 W 17 16.09 Fair CLR 17 11 68% 76.23 0.0
08 17:55 W 11 16.09 Fair CLR 17 11 68% 76.23 0.0
08 17:35 Vrbl 11 16.09 Fair CLR 18 11 64% 76.23 0.0
08 17:15 W 13 16.09 Fair CLR 19 11 60% 76.25 0.0
08 16:55 W 17 16.09 Fair CLR 19 11 60% 76.25 0.0
08 16:35 W 17 16.09 Fair CLR 19 11 60% 76.28 0.0
08 16:15 W 13 16.09 Fair CLR 20 12 60% 76.28 0.0
08 15:55 W 19 16.09 Fair CLR 20 12 60% 76.3 0.0
08 15:35 Vrbl 9 G 24 16.09 Fair CLR 20 12 60% 76.3 0.0
08 15:15 W 13 G 24 16.09 Fair CLR 20 12 60% 76.33 0.0
08 14:55 W 15 16.09 Fair CLR 20 12 60% 76.35 0.0
08 14:35 W 17 G 26 16.09 Fair CLR 20 12 60% 76.35 0.0
08 14:15 W 11 G 20 16.09 Fair CLR 21 12 57% 76.35 0.0
08 13:55 Vrbl 11 G 22 16.09 Fair CLR 21 13 60% 76.38 0.0
08 13:35 Vrbl 7 G 22 16.09 Fair CLR 20 12 60% 76.38 0.0
08 13:15 NW 13 16.09 Fair CLR 20 12 60% 76.4 0.0
08 12:55 W 15 16.09 Fair CLR 19 11 60% 76.43 0.0
08 12:35 SW 11 16.09 Fair CLR 19 12 64% 76.43 0.0
08 12:15 Vrbl 6 G 19 16.09 Fair CLR 18 11 64% 76.43 0.0
08 11:55 Calm 16.09 Partly Cloudy SCT017 17 11 68% 76.45 0.0
08 11:35 W 11 16.09 Overcast OVC017 16 11 72% 76.45 0.0
08 11:15 W 11 16.09 Overcast OVC015 16 11 72% 76.48 0.0
08 10:55 W 13 16.09 Overcast OVC015 15 11 77% 76.48 0.0
08 10:35 W 11 16.09 Overcast OVC014 15 11 77% 76.48 0.0
08 10:15 Vrbl 9 16.09 Overcast OVC013 14 11 82% 76.45 0.0
08 09:55 W 9 16.09 Overcast OVC011 13 11 88% 76.45 0.0
08 09:35 Vrbl 9 16.09 Overcast OVC008 12 11 94% 76.48 0.0
08 09:15 Calm 16.09 Overcast OVC007 11 11 100% 76.45 0.0
08 08:55 Calm 16.09 Overcast OVC006 11 11 100% 76.45 0.0
08 08:35 Vrbl 7 16.09 Overcast OVC005 10 10 100% 9 76.45 0.0
08 08:15 Calm 14.48 Overcast OVC005 10 10 100% 76.45 0.0
08 07:55 Calm 11.27 Overcast OVC005 10 10 100% 76.45 0.0
08 07:35 W 7 12.87 Overcast OVC005 10 10 100% 9 76.43 0.0
08 07:15 Calm 14.48 Overcast OVC005 10 10 100% 76.43 0.0
08 06:55 W 9 16.09 Overcast OVC006 10 10 100% 9 76.43 0.0
08 06:35 Calm 16.09 Overcast OVC008 10 10 100% 76.4 0.0
08 06:15 W 6 16.09 Overcast OVC008 10 10 100% 76.4 0.0
08 05:55 Calm 16.09 Overcast OVC007 10 10 100% 76.38 0.0
08 05:35 Calm 16.09 Overcast OVC006 10 10 100% 76.4 0.0
08 05:15 W 9 16.09 Overcast OVC005 10 10 100% 9 76.38 0.0
08 04:55 Calm 16.09 Overcast OVC005 10 10 100% 76.38 0.0
08 04:35 W 7 16.09 Overcast OVC005 10 10 100% 9 76.38 0.0
08 04:15 W 11 16.09 Overcast OVC005 10 10 100% 9 76.4 0.0
08 03:55 W 15 16.09 Overcast OVC006 10 10 100% 8 76.4 0.0
08 03:35 W 9 16.09 Overcast OVC007 10 10 100% 9 76.4 0.0
08 03:15 Calm 16.09 Overcast OVC007 10 10 100% 76.4 0.0
08 02:55 Vrbl 7 16.09 Overcast OVC007 10 10 100% 9 76.4 0.0
08 02:35 W 9 16.09 Overcast OVC007 10 10 100% 9 76.4 0.0
08 02:15 W 7 16.09 Overcast OVC007 10 10 100% 9 76.4 0.0
08 01:55 Vrbl 9 16.09 Overcast OVC007 10 10 100% 9 76.38 0.0
08 01:35 Vrbl 7 16.09 Overcast OVC008 10 10 100% 9 76.38 0.0
08 01:15 W 9 16.09 Overcast OVC008 10 10 100% 9 76.4 0.0
08 00:55 W 11 16.09 Overcast OVC008 10 10 100% 9 76.4 0.0
08 00:35 W 11 16.09 Overcast OVC008 11 11 100% 76.4 0.0
08 00:15 W 7 G 19 16.09 Overcast OVC008 11 11 100% 76.38 0.0
07 23:55 W 11 16.09 Overcast OVC008 11 11 100% 76.4 0.0
07 23:35 W 15 16.09 Overcast OVC008 11 11 100% 76.4 0.0
07 23:15 W 15 16.09 Overcast OVC008 11 11 100% 76.4 0.0
07 22:55 W 11 G 26 16.09 Overcast OVC007 11 11 100% 76.4 0.0
07 22:35 W 15 16.09 Overcast OVC007 11 11 100% 76.4 0.0
07 22:15 W 11 G 22 16.09 Overcast OVC007 11 11 100% 76.4 0.0
07 21:55 W 19 16.09 Overcast OVC008 11 11 100% 76.4 0.0
07 21:35 W 13 14.48 Overcast OVC008 11 11 100% 76.38 0.0
07 21:15 W 15 G 26 12.87 Overcast OVC008 11 11 100% 76.35 0.0
07 20:55 NW 13 16.09 Overcast OVC007 11 11 100% 76.35 0.0
07 20:35 Vrbl 11 G 24 16.09 Overcast OVC007 11 11 100% 76.35 0.0
07 20:15 W 17 16.09 Overcast OVC009 12 11 94% 76.35 0.0
07 19:55 W 11 G 20 16.09 Overcast OVC009 12 11 94% 76.33 0.0
07 19:35 W 15 16.09 Overcast OVC010 12 11 94% 76.33 0.0
07 19:15 Vrbl 7 G 19 16.09 Mostly Cloudy BKN011 13 11 88% 76.33 0.0
07 18:55 W 15 16.09 Partly Cloudy SCT011 13 11 88% 76.33 0.0
07 18:35 NW 11 16.09 Partly Cloudy SCT013 14 12 88% 76.33 0.0
07 18:15 W 15 16.09 Partly Cloudy SCT013 15 11 77% 76.33 0.0
07 17:55 W 19 16.09 Mostly Cloudy BKN014 15 11 77% 76.35 0.0
07 17:35 Vrbl 13 G 24 16.09 Overcast OVC014 15 11 77% 76.35 0.0
07 17:15 W 22 16.09 Mostly Cloudy BKN014 15 11 77% 76.35 0.0
07 16:55 W 24 16.09 A Few Clouds FEW014 16 11 72% 76.35 0.0
07 16:35 W 19 G 30 16.09 Fair CLR 16 11 72% 76.35 0.0
07 16:15 W 24 16.09 Fair CLR 17 12 73% 76.38 0.0
07 15:55 W 15 G 31 16.09 Fair CLR 18 12 68% 76.38 0.0
07 15:35 W 22 16.09 Fair CLR 18 12 68% 76.38 0.0
07 15:15 W 20 16.09 Fair CLR 18 12 68% 76.38 0.0
07 14:55 W 13 G 26 16.09 Fair CLR 18 13 73% 76.38 0.0
07 14:35 W 19 16.09 Fair CLR 18 12 68% 76.4 0.0
07 14:15 W 20 16.09 Fair CLR 19 13 68% 76.4 0.0
07 13:55 Vrbl 7 G 19 16.09 A Few Clouds FEW017 19 13 68% 76.43 0.0
07 13:35 Vrbl 11 16.09 A Few Clouds FEW017 19 13 68% 76.43 0.0
07 13:15 Vrbl 7 16.09 A Few Clouds FEW015 19 14 73% 76.43 0.0
07 12:55 Vrbl 9 16.09 Mostly Cloudy BKN014 18 13 73% 76.45 0.0
07 12:35 Vrbl 6 16.09 Mostly Cloudy BKN013 17 13 77% 76.48 0.0
07 12:15 Vrbl 7 16.09 Overcast OVC013 17 12 73% 76.48 0.0
07 11:55 Vrbl 7 16.09 Overcast OVC012 16 13 83% 76.5 0.0
07 11:35 Calm 16.09 Overcast OVC010 15 12 82% 76.5 0.0
07 11:15 Calm 16.09 Overcast OVC009 14 12 88% 76.53 0.0
07 10:55 Vrbl 6 16.09 Overcast OVC008 14 12 88% 76.5 0.0
07 10:35 Calm 16.09 Overcast OVC008 13 12 94% 76.53 0.0
07 10:15 Calm 16.09 Overcast OVC007 13 12 94% 76.53 0.0
07 09:55 NW 7 16.09 Overcast OVC006 12 11 94% 76.53 0.0
07 09:35 Calm 16.09 Overcast OVC006 12 11 94% 76.53 0.0
07 09:15 Calm 16.09 Overcast OVC006 11 11 100% 76.5 0.0
07 08:55 Calm 16.09 Overcast OVC005 11 11 100% 76.5 0.0
07 08:35 Calm 14.48 Overcast OVC005 0 0 0% 76.5 0.0
07 08:15 W 9 12.87 Overcast OVC005 10 10 100% 9 76.5 0.0
07 07:55 SW 9 14.48 Overcast OVC005 10 10 100% 9 76.5 0.0
07 07:35 W 7 9.66 Fog/Mist OVC005 10 10 100% 9 76.5 0.0
07 07:15 SW 11 9.66 Fog/Mist OVC005 10 10 100% 9 76.5 0.0
07 06:55 Calm 12.87 Overcast OVC005 10 10 100% 76.48 0.0
07 06:35 SW 6 14.48 Overcast OVC005 10 10 100% 76.48 0.0
07 06:15 W 6 14.48 Overcast OVC005 10 10 100% 76.45 0.0
07 05:55 Vrbl 6 16.09 Overcast OVC005 10 10 100% 76.45 0.0
07 05:35 W 9 14.48 Overcast OVC005 10 10 100% 9 76.45 0.0
07 05:15 W 9 16.09 Overcast OVC005 10 10 100% 9 76.45 0.0
07 04:55 W 13 16.09 Overcast OVC005 10 10 100% 8 76.45 0.0
07 04:35 NW 11 16.09 Overcast OVC005 10 10 100% 9 76.45 0.0
07 04:15 W 11 16.09 Overcast OVC005 11 11 100% 76.45 0.0
07 03:55 W 11 16.09 Overcast OVC005 11 11 100% 76.45 0.0
07 03:35 W 13 16.09 Overcast OVC006 11 11 100% 76.45 0.0
07 03:15 W 11 16.09 Overcast OVC006 11 11 100% 76.48 0.0
07 02:55 W 11 16.09 Overcast OVC006 11 11 100% 76.48 0.0
07 02:35 W 9 16.09 Overcast OVC006 11 11 100% 76.48 0.0
07 02:15 NW 9 16.09 Overcast OVC006 11 11 100% 76.48 0.0
07 01:55 W 9 16.09 Overcast OVC006 11 11 100% 76.48 0.0
07 01:35 Calm 16.09 Overcast OVC007 11 11 100% 76.48 0.0
07 01:15 W 11 16.09 Overcast OVC007 11 11 100% 76.5 0.0
07 00:55 W 11 16.09 Overcast OVC007 11 11 100% 76.5 0.0
07 00:35 W 11 16.09 Overcast OVC008 11 11 100% 76.5 0.0
07 00:15 Calm 16.09 Overcast OVC008 11 11 100% 76.5 0.0
06 23:55 W 11 16.09 Overcast OVC008 11 11 100% 76.48 0.0
06 23:35 W 11 16.09 Overcast OVC008 11 11 100% 76.48 0.0
06 23:15 W 9 16.09 Overcast OVC008 11 11 100% 76.48 0.0
06 22:55 W 11 G 20 16.09 Overcast OVC008 11 11 100% 76.48 0.0
06 22:35 W 11 16.09 Overcast OVC008 11 11 100% 76.48 0.0
06 22:15 W 13 16.09 Overcast OVC008 11 11 100% 76.48 0.0
06 21:55 W 13 16.09 Overcast OVC008 11 11 100% 76.48 0.0
06 21:35 W 13 16.09 Overcast OVC009 12 11 94% 76.48 0.0
06 21:15 W 13 16.09 Overcast OVC009 12 12 100% 76.45 0.0
06 20:55 W 19 16.09 Overcast OVC009 12 11 94% 76.45 0.0
06 20:35 W 17 16.09 Mostly Cloudy BKN009 BKN013 12 12 100% 76.45 0.0
06 20:15 Vrbl 9 G 22 16.09 Partly Cloudy SCT013 12 11 94% 76.45 0.0
06 19:55 W 15 16.09 A Few Clouds FEW013 12 11 94% 76.45 0.0
06 19:35 W 15 16.09 Fair CLR 13 11 88% 76.45 0.0
06 19:15 W 17 16.09 A Few Clouds FEW015 14 11 82% 76.45 0.0
06 18:55 W 20 16.09 Fair CLR 15 11 77% 76.45 0.0
06 18:35 W 20 16.09 A Few Clouds FEW016 15 11 77% 76.45 0.0
06 18:15 W 22 16.09 Fair CLR 16 11 72% 76.45 0.0
06 17:55 W 17 16.09 A Few Clouds FEW017 16 11 72% 76.45 0.0
06 17:35 W 22 16.09 Fair CLR 17 12 73% 76.45 0.0
06 17:15 W 19 16.09 Fair CLR 17 12 73% 76.45 0.0
06 16:55 W 22 G 31 16.09 Fair CLR 18 11 64% 76.45 0.0
06 16:35 W 20 16.09 Fair CLR 18 12 68% 76.45 0.0
06 16:15 W 20 16.09 Fair CLR 18 12 68% 76.45 0.0
06 15:55 W 19 G 30 16.09 Fair CLR 19 12 64% 76.45 0.0
06 15:35 W 22 16.09 Fair CLR 19 13 68% 76.48 0.0
06 15:15 W 20 16.09 Fair CLR 20 13 64% 76.48 0.0
06 14:55 W 17 G 26 16.09 Mostly Cloudy BKN037 20 13 64% 76.5 0.0
06 14:35 W 17 16.09 Overcast OVC037 20 13 64% 76.5 0.0
06 14:15 W 19 16.09 Overcast OVC037 21 13 60% 76.5 0.0
06 13:55 W 15 16.09 Overcast OVC037 21 13 60% 76.5 0.0
06 13:35 W 13 16.09 Overcast OVC037 20 13 64% 76.53 0.0
06 13:15 W 13 16.09 Overcast OVC038 20 13 64% 76.53 0.0
Date Time (pdt) Wind (kph) Vis. (km) Weather Sky Cond. Air Dwpt Max. Min. Relative Humidity Wind Chill (°C) Heat Index (°C) altimeter (cm) sea level (mb) 1 hr 3 hr 6 hr
6 hour
Temperature (ºC) Pressure Precipitation (cm)